Time;durP1;ratioP1;P1;durP2;ratioP2;P2;SDS_P1;SDS_P2;PMS_P1;PMS_P2;Temp;Humidity;BMP_temperature;BMP_pressure;BME280_temperature;BME280_humidity;BME280_pressure;Samples;Min_cycle;Max_cycle;Signal;HPM_P1;HPM_P2
2022/07/01 06:23:50;;;;;;;;;1.33;1.33;;;;;21.45;49.49;101600.25;5062836;27;45607;-76
2022/07/01 06:26:15;;;;;;;;;1.33;1.33;;;;;21.49;48.25;101597.28;5057221;28;45472;-76
2022/07/01 06:28:41;;;;;;;;;2.00;2.00;;;;;21.55;48.33;101599.44;5060530;27;45590;-77
2022/07/01 06:31:07;;;;;;;;;3.67;2.00;;;;;21.60;47.83;101608.00;5055358;28;45841;-77
2022/07/01 06:33:32;;;;;;;;;1.00;1.00;;;;;21.71;47.75;101591.72;5059845;28;46085;-76
2022/07/01 06:35:58;;;;;;;;;0.00;0.00;;;;;21.81;46.87;101580.09;5065630;28;45376;-74
2022/07/01 06:38:24;;;;;;;;;1.00;1.00;;;;;21.90;46.84;101591.97;5057606;27;45970;-74
2022/07/01 06:43:34;;;;;;;;;1.00;1.00;;;;;22.16;46.30;101596.84;5060624;28;45467;-75
2022/07/01 06:46:00;;;;;;;;;1.00;1.00;;;;;22.26;45.34;101608.53;5057693;28;46719;-75
2022/07/01 06:48:25;;;;;;;;;2.67;2.00;;;;;22.28;45.23;101608.41;5054729;28;45498;-75
2022/07/01 06:50:50;;;;;;;;;1.00;1.00;;;;;22.30;45.24;101611.81;5053250;28;45511;-75
2022/07/01 06:53:16;;;;;;;;;1.00;1.00;;;;;22.35;45.77;101610.41;5049363;28;60703;-73
2022/07/01 06:55:41;;;;;;;;;2.00;2.00;;;;;22.42;45.36;101607.13;5061970;28;56294;-73
2022/07/01 06:58:07;;;;;;;;;2.67;1.33;;;;;22.48;45.45;101609.31;5059661;28;45495;-74
2022/07/01 07:00:32;;;;;;;;;2.00;2.00;;;;;22.50;44.83;101610.88;5058375;27;45686;-76
2022/07/01 07:02:58;;;;;;;;;1.00;1.00;;;;;22.58;44.72;101612.03;5049664;28;46140;-74
2022/07/01 07:05:23;;;;;;;;;0.67;0.67;;;;;22.58;43.96;101610.19;5054338;28;49566;-74
2022/07/01 07:10:16;;;;;;;;;1.00;1.00;;;;;22.75;43.63;101621.31;5088690;27;45855;-79
2022/07/01 07:12:42;;;;;;;;;1.00;1.00;;;;;22.81;43.83;101609.91;5065788;27;49631;-78
2022/07/01 07:15:08;;;;;;;;;1.33;1.00;;;;;22.87;43.52;101622.00;5065305;27;46827;-77
2022/07/01 07:17:33;;;;;;;;;1.00;0.67;;;;;22.90;43.13;101611.75;5067193;27;47296;-76
2022/07/01 07:19:58;;;;;;;;;1.33;1.00;;;;;22.98;43.23;101612.91;5064382;27;46286;-73
2022/07/01 07:22:24;;;;;;;;;1.00;1.00;;;;;23.14;43.33;101612.31;5066003;27;54109;-71
2022/07/01 07:24:49;;;;;;;;;1.00;1.00;;;;;23.31;43.38;101605.28;5067982;27;45524;-71
2022/07/01 07:27:14;;;;;;;;;0.00;0.00;;;;;23.52;43.27;101609.69;5067721;27;45709;-71
2022/07/01 07:29:40;;;;;;;;;0.67;0.67;;;;;23.73;42.86;101605.88;5064821;27;46069;-71
2022/07/01 07:32:05;;;;;;;;;0.00;0.00;;;;;23.89;42.27;101613.38;5067077;27;51331;-71
2022/07/01 07:34:31;;;;;;;;;0.00;0.00;;;;;24.05;42.06;101610.91;5066710;27;45596;-72
2022/07/01 07:36:56;;;;;;;;;2.00;0.67;;;;;24.19;42.39;101612.25;5069734;27;45667;-73
2022/07/01 07:39:21;;;;;;;;;1.00;1.00;;;;;24.31;41.78;101606.59;5063831;27;48471;-74
2022/07/01 07:41:47;;;;;;;;;0.67;0.67;;;;;24.45;41.28;101613.38;5083015;27;45810;-75
2022/07/01 07:44:12;;;;;;;;;2.00;1.00;;;;;24.56;40.87;101610.44;5067176;27;45991;-73
2022/07/01 07:46:37;;;;;;;;;0.67;0.00;;;;;24.68;40.36;101612.94;5071938;27;45679;-73
2022/07/01 07:49:03;;;;;;;;;0.33;0.33;;;;;24.79;40.49;101620.84;5066311;27;47267;-74
2022/07/01 07:51:28;;;;;;;;;0.33;0.33;;;;;24.86;40.26;101610.22;5070324;27;47126;-75
2022/07/01 07:53:53;;;;;;;;;1.00;1.00;;;;;24.93;39.79;101615.91;5070607;27;46012;-74
2022/07/01 07:56:19;;;;;;;;;1.33;1.33;;;;;25.03;40.06;101613.06;5067099;27;45513;-73
2022/07/01 07:58:44;;;;;;;;;0.00;0.00;;;;;25.12;39.46;101617.56;5068934;27;47089;-73
2022/07/01 08:01:09;;;;;;;;;0.00;0.00;;;;;25.17;39.25;101612.50;5066083;27;47489;-74
2022/07/01 08:03:35;;;;;;;;;0.33;0.33;;;;;25.21;39.35;101611.19;5065251;27;46144;-76
2022/07/01 08:06:01;;;;;;;;;0.00;0.00;;;;;25.27;38.49;101612.41;5067026;27;47258;-75
2022/07/01 08:08:27;;;;;;;;;1.00;0.00;;;;;25.30;38.44;101617.50;5064950;27;46079;-75
2022/07/01 08:10:53;;;;;;;;;0.00;0.00;;;;;25.35;38.59;101627.91;5066233;27;45490;-75
2022/07/01 08:13:18;;;;;;;;;1.00;1.00;;;;;25.36;38.07;101613.31;5066507;27;45687;-75
2022/07/01 08:15:44;;;;;;;;;0.00;0.00;;;;;25.41;38.08;101627.28;5065953;27;46075;-72
2022/07/01 08:18:09;;;;;;;;;2.00;1.00;;;;;25.43;37.86;101621.69;5064574;27;46636;-79
2022/07/01 08:20:35;;;;;;;;;2.00;0.33;;;;;25.43;37.63;101627.97;5058523;27;47251;-78
2022/07/01 08:23:00;;;;;;;;;0.00;0.00;;;;;25.44;38.02;101631.53;5052689;27;45490;-78
2022/07/01 08:25:25;;;;;;;;;0.00;0.00;;;;;25.48;37.95;101630.19;5055497;27;46794;-79
2022/07/01 08:27:51;;;;;;;;;0.00;0.00;;;;;25.52;38.01;101626.16;5060988;27;46955;-79
2022/07/01 08:30:16;;;;;;;;;0.00;0.00;;;;;25.58;38.11;101632.84;5056964;27;45798;-78
2022/07/01 08:32:41;;;;;;;;;0.00;0.00;;;;;25.63;38.04;101628.63;5053813;27;49870;-80
2022/07/01 08:35:07;;;;;;;;;0.00;0.00;;;;;25.69;38.25;101631.69;5052421;27;46450;-79
2022/07/01 08:37:33;;;;;;;;;0.33;0.00;;;;;25.76;37.92;101627.34;5051241;27;46888;-79
2022/07/01 08:39:59;;;;;;;;;0.33;0.33;;;;;25.82;37.79;101631.28;5056443;27;51047;-80
2022/07/01 08:42:24;;;;;;;;;2.00;1.00;;;;;25.88;37.97;101634.16;5052934;27;46006;-79
2022/07/01 08:44:49;;;;;;;;;1.00;1.00;;;;;25.95;37.41;101636.25;5052119;27;45702;-76
2022/07/01 08:47:15;;;;;;;;;0.00;0.00;;;;;26.03;37.94;101644.44;5052193;27;47599;-76
2022/07/01 08:49:41;;;;;;;;;2.00;0.33;;;;;26.10;37.35;101647.34;5053638;27;45696;-77
2022/07/01 08:52:09;;;;;;;;;0.67;0.00;;;;;26.14;36.90;101633.28;5054261;27;46333;-77
2022/07/01 08:54:36;;;;;;;;;1.00;1.00;;;;;26.19;37.60;101640.91;5054106;27;45771;-78
2022/07/01 08:57:03;;;;;;;;;1.00;1.00;;;;;26.21;37.62;101636.19;5054169;27;45994;-78
2022/07/01 08:59:28;;;;;;;;;0.00;0.00;;;;;26.23;37.49;101642.31;5053495;27;45576;-77
2022/07/01 09:01:59;;;;;;;;;2.67;0.00;;;;;26.28;37.33;101648.13;5053456;27;46152;-78
2022/07/01 09:04:25;;;;;;;;;0.00;0.00;;;;;26.31;37.06;101646.94;5056292;27;46646;-78
2022/07/01 09:06:51;;;;;;;;;0.00;0.00;;;;;26.35;37.11;101644.78;5053895;27;46536;-79
2022/07/01 09:09:21;;;;;;;;;0.00;0.00;;;;;26.38;37.07;101650.72;5053377;27;45733;-78
2022/07/01 09:11:54;;;;;;;;;0.00;0.00;;;;;26.41;36.91;101650.38;5053655;27;45574;-78
2022/07/01 09:14:25;;;;;;;;;0.00;0.00;;;;;26.44;36.84;101649.19;5052120;27;47209;-79
2022/07/01 09:16:52;;;;;;;;;0.67;0.67;;;;;26.46;37.05;101649.88;5054564;27;46273;-78
2022/07/01 09:19:20;;;;;;;;;1.00;0.00;;;;;26.50;36.26;101648.53;5053743;27;46853;-83
2022/07/01 09:21:55;;;;;;;;;0.00;0.00;;;;;26.49;36.27;101638.69;5053871;27;46669;-79
2022/07/01 09:24:30;;;;;;;;;0.00;0.00;;;;;26.51;36.42;101646.66;5050404;27;45986;-82
2022/07/01 09:27:00;;;;;;;;;0.00;0.00;;;;;26.51;36.33;101650.25;5053028;27;47071;-80
2022/07/01 09:29:33;;;;;;;;;0.00;0.00;;;;;26.53;36.33;101659.06;5056002;27;45564;-78
2022/07/01 09:32:03;;;;;;;;;1.00;0.00;;;;;26.55;36.24;101675.25;5051352;27;50582;-78
2022/07/01 09:34:40;;;;;;;;;0.00;0.00;;;;;26.53;36.10;101663.69;5055547;27;45520;-79
2022/07/01 09:37:06;;;;;;;;;0.00;0.00;;;;;26.54;36.35;101670.81;5051597;27;45590;-79
2022/07/01 09:39:45;;;;;;;;;0.00;0.00;;;;;26.55;36.90;101664.34;5053174;27;47291;-81
2022/07/01 09:42:11;;;;;;;;;0.00;0.00;;;;;26.56;36.73;101658.75;5080205;27;45990;-81
2022/07/01 09:45:07;;;;;;;;;0.00;0.00;;;;;26.59;36.77;101660.28;5052025;27;47178;-80
2022/07/01 09:47:34;;;;;;;;;0.00;0.00;;;;;26.61;36.89;101666.44;5054156;27;47965;-83
2022/07/01 09:50:02;;;;;;;;;0.00;0.00;;;;;26.63;36.43;101668.97;5052726;27;45660;-80
2022/07/01 09:52:28;;;;;;;;;1.00;0.00;;;;;26.64;36.55;101676.13;5054438;27;45506;-80
2022/07/01 09:54:53;;;;;;;;;1.00;1.00;;;;;26.65;37.14;101666.94;5054460;27;51295;-80
2022/07/01 09:57:20;;;;;;;;;0.67;0.67;;;;;26.67;37.06;101673.94;5051195;27;47244;-81
2022/07/01 09:59:47;;;;;;;;;0.00;0.00;;;;;26.69;37.38;101671.88;5052309;27;47069;-79
2022/07/01 10:02:13;;;;;;;;;0.00;0.00;;;;;26.70;37.36;101668.13;5059565;27;47068;-78
2022/07/01 10:04:46;;;;;;;;;0.67;0.00;;;;;26.72;36.97;101667.97;5073127;27;45426;-77
2022/07/01 10:07:46;;;;;;;;;0.00;0.00;;;;;26.75;37.08;101664.03;5071716;27;45667;-78
2022/07/01 10:10:36;;;;;;;;;1.00;1.00;;;;;26.77;36.69;101670.19;5068715;27;45478;-78
2022/07/01 10:13:03;;;;;;;;;0.33;0.33;;;;;26.79;36.69;101658.13;5071096;27;46864;-78
2022/07/01 10:15:29;;;;;;;;;0.00;0.00;;;;;26.82;36.57;101671.38;5069740;27;45362;-78
2022/07/01 10:17:54;;;;;;;;;0.00;0.00;;;;;26.84;37.00;101669.34;5069322;27;46146;-78
2022/07/01 10:20:25;;;;;;;;;0.00;0.00;;;;;26.87;37.07;101668.16;5067593;27;53117;-79
2022/07/01 10:22:59;;;;;;;;;2.00;0.00;;;;;26.89;36.16;101674.28;5071408;28;45415;-80
2022/07/01 10:25:44;;;;;;;;;0.33;0.33;;;;;26.92;36.70;101668.50;5071001;27;45447;-79
2022/07/01 10:28:19;;;;;;;;;0.00;0.00;;;;;26.93;36.76;101677.53;5068909;27;52645;-80
2022/07/01 10:30:59;;;;;;;;;0.00;0.00;;;;;26.94;36.66;101660.19;5070563;27;45544;-79
2022/07/01 10:33:34;;;;;;;;;0.00;0.00;;;;;26.94;36.69;101671.09;5069416;27;45504;-81
2022/07/01 10:36:25;;;;;;;;;0.00;0.00;;;;;26.93;36.69;101672.94;5069538;28;45426;-78
2022/07/01 10:39:16;;;;;;;;;0.00;0.00;;;;;26.95;36.67;101673.66;5068876;28;45453;-77
2022/07/01 10:41:56;;;;;;;;;0.00;0.00;;;;;26.96;36.22;101672.63;5070827;27;45417;-79
2022/07/01 10:44:24;;;;;;;;;0.00;0.00;;;;;26.98;36.77;101671.59;5068991;27;45594;-80
2022/07/01 10:46:56;;;;;;;;;1.67;0.00;;;;;27.00;36.69;101661.38;5071914;27;45549;-80
2022/07/01 10:49:37;;;;;;;;;0.00;0.00;;;;;27.02;36.78;101660.19;5070859;27;45436;-79
2022/07/01 10:52:07;;;;;;;;;0.00;0.00;;;;;27.03;36.07;101670.06;5070495;28;45360;-83
2022/07/01 10:54:45;;;;;;;;;0.67;0.00;;;;;27.03;36.72;101663.75;5067855;27;46696;-77
2022/07/01 10:57:16;;;;;;;;;0.00;0.00;;;;;27.02;36.76;101667.53;5068273;28;45624;-79
2022/07/01 11:00:02;;;;;;;;;0.00;0.00;;;;;26.99;36.44;101656.94;5071536;27;46435;-79
2022/07/01 11:02:30;;;;;;;;;0.00;0.00;;;;;27.01;36.30;101658.47;5062888;28;45828;-77
2022/07/01 11:05:10;;;;;;;;;0.00;0.00;;;;;27.02;36.63;101668.34;5070605;27;45568;-79
2022/07/01 11:07:37;;;;;;;;;2.00;0.00;;;;;27.05;36.26;101657.13;5072218;28;45407;-81
2022/07/01 11:10:06;;;;;;;;;0.00;0.00;;;;;27.08;36.31;101664.09;5067892;27;45809;-77
2022/07/01 11:12:32;;;;;;;;;0.00;0.00;;;;;27.11;36.44;101661.06;5070683;27;45780;-79
2022/07/01 11:15:01;;;;;;;;;0.00;0.00;;;;;27.13;36.86;101659.00;5069880;27;45472;-79
2022/07/01 11:17:28;;;;;;;;;0.00;0.00;;;;;27.20;36.42;101660.03;5065955;27;45321;-80
2022/07/01 11:19:57;;;;;;;;;0.00;0.00;;;;;27.23;35.88;101659.66;5050937;27;46050;-76
2022/07/01 11:22:26;;;;;;;;;0.00;0.00;;;;;27.20;35.09;101670.94;5052828;27;47156;-76
2022/07/01 11:24:53;;;;;;;;;0.00;0.00;;;;;27.13;33.97;101659.00;5054258;27;45593;-76
2022/07/01 11:27:18;;;;;;;;;0.00;0.00;;;;;27.09;34.82;101663.06;5052149;27;46644;-76
2022/07/01 11:29:43;;;;;;;;;0.00;0.00;;;;;27.06;34.15;101653.38;5049709;27;47742;-76
2022/07/01 11:32:09;;;;;;;;;0.00;0.00;;;;;26.98;33.63;101653.41;5051941;27;53224;-75
2022/07/01 11:34:37;;;;;;;;;0.00;0.00;;;;;26.89;33.86;101651.66;5051590;27;46888;-76
2022/07/01 11:40:24;;;;;;;;;0.00;0.00;;;;;26.66;33.30;101664.06;5048751;27;45720;-76
2022/07/01 11:42:49;;;;;;;;;0.00;0.00;;;;;26.56;33.77;101657.88;5030394;27;47389;-78
2022/07/01 11:45:25;;;;;;;;;0.00;0.00;;;;;26.55;35.41;101661.63;5049859;27;46549;-83
2022/07/01 11:47:51;;;;;;;;;0.00;0.00;;;;;26.55;37.74;101667.94;5052545;27;45839;-78
2022/07/01 11:50:16;;;;;;;;;0.00;0.00;;;;;26.55;37.19;101670.66;5055570;27;46835;-81
2022/07/01 11:52:42;;;;;;;;;0.67;0.67;;;;;26.58;36.79;101664.03;5052193;27;45676;-83
2022/07/01 11:55:08;;;;;;;;;2.00;0.00;;;;;26.60;36.51;101661.97;5050406;27;46679;-81
2022/07/01 11:57:34;;;;;;;;;0.33;0.33;;;;;26.60;37.32;101659.25;5053699;27;45615;-81
2022/07/01 12:00:09;;;;;;;;;2.00;0.00;;;;;26.61;37.32;101676.47;5055150;27;47315;-79
2022/07/01 12:02:34;;;;;;;;;2.33;1.33;;;;;26.60;36.29;101664.72;5056732;27;47483;-80
2022/07/01 12:05:00;;;;;;;;;0.00;0.00;;;;;26.62;35.99;101656.38;5052323;27;47853;-78
2022/07/01 12:07:26;;;;;;;;;0.00;0.00;;;;;26.63;35.78;101660.78;5055803;27;46426;-76
2022/07/01 12:09:51;;;;;;;;;2.00;0.67;;;;;26.64;36.37;101660.63;5053151;27;46317;-76
2022/07/01 12:12:19;;;;;;;;;0.00;0.00;;;;;26.67;36.05;101660.31;5054655;27;45704;-77
2022/07/01 12:14:56;;;;;;;;;2.67;1.33;;;;;26.72;36.50;101659.78;5057209;27;45720;-77
2022/07/01 12:17:22;;;;;;;;;0.00;0.00;;;;;26.76;36.49;101673.94;5054517;27;45762;-78
2022/07/01 12:19:49;;;;;;;;;0.67;0.67;;;;;26.79;36.13;101673.59;5057678;27;47403;-77
2022/07/01 12:22:18;;;;;;;;;0.33;0.33;;;;;26.82;36.79;101665.94;5047291;27;46191;-80
2022/07/01 12:24:44;;;;;;;;;0.67;0.00;;;;;26.84;36.63;101669.34;5052718;27;45586;-80
2022/07/01 12:27:10;;;;;;;;;1.00;1.00;;;;;26.89;36.49;101670.72;5058318;27;45755;-78
2022/07/01 12:29:50;;;;;;;;;0.00;0.00;;;;;26.93;36.44;101664.78;5051997;27;45746;-82
2022/07/01 12:32:28;;;;;;;;;0.00;0.00;;;;;26.98;36.87;101661.56;5054125;27;46142;-79
2022/07/01 12:34:59;;;;;;;;;0.00;0.00;;;;;27.02;36.46;101657.44;5055142;27;45894;-76
2022/07/01 12:37:30;;;;;;;;;1.67;0.00;;;;;27.05;36.80;101659.00;5059603;27;45618;-76
2022/07/01 12:39:57;;;;;;;;;2.67;1.00;;;;;27.08;36.60;101661.38;5052589;27;46123;-78
2022/07/01 12:42:28;;;;;;;;;1.00;1.00;;;;;27.13;35.48;101658.16;5052631;27;46203;-79
2022/07/01 12:44:58;;;;;;;;;0.00;0.00;;;;;27.15;35.00;101651.50;5052119;27;46160;-79
2022/07/01 12:47:27;;;;;;;;;3.00;0.67;;;;;27.17;34.85;101662.22;5050877;27;46172;-79
2022/07/01 12:50:12;;;;;;;;;1.00;1.00;;;;;27.17;34.99;101659.50;5053382;27;47227;-78
2022/07/01 12:52:43;;;;;;;;;0.00;0.00;;;;;27.15;34.73;101654.25;5055352;27;45785;-75
2022/07/01 12:55:18;;;;;;;;;0.00;0.00;;;;;27.14;34.99;101659.84;5054863;27;45647;-76
2022/07/01 12:57:47;;;;;;;;;0.00;0.00;;;;;27.13;35.76;101656.25;5052627;27;45623;-77
2022/07/01 13:00:13;;;;;;;;;2.33;1.00;;;;;27.14;35.79;101651.69;5053501;27;48164;-78
2022/07/01 13:02:38;;;;;;;;;0.00;0.00;;;;;27.14;35.95;101655.25;5051393;27;46551;-78
2022/07/01 13:05:03;;;;;;;;;2.00;0.00;;;;;27.15;36.18;101656.09;5052427;27;46745;-77
2022/07/01 13:07:29;;;;;;;;;0.00;0.00;;;;;27.16;35.80;101655.94;5069966;27;46078;-78
2022/07/01 13:09:54;;;;;;;;;0.00;0.00;;;;;27.17;36.22;101657.63;5054577;27;51582;-78
2022/07/01 13:12:19;;;;;;;;;0.00;0.00;;;;;27.20;36.15;101664.63;5052833;27;53392;-78
2022/07/01 13:14:45;;;;;;;;;0.00;0.00;;;;;27.22;34.81;101662.59;5052138;27;51348;-77
2022/07/01 13:17:10;;;;;;;;;0.00;0.00;;;;;27.25;34.40;101669.56;5050963;27;45498;-76
2022/07/01 13:19:35;;;;;;;;;0.00;0.00;;;;;27.26;34.11;101665.81;5053265;27;53644;-78
2022/07/01 13:22:04;;;;;;;;;1.67;0.00;;;;;27.25;34.47;101667.66;5051938;27;49760;-77
2022/07/01 13:24:30;;;;;;;;;1.67;1.00;;;;;27.23;34.01;101656.94;5052027;27;45482;-77
2022/07/01 13:26:56;;;;;;;;;2.33;0.00;;;;;27.24;34.03;101668.69;5051947;27;45668;-77
2022/07/01 13:29:22;;;;;;;;;0.33;0.00;;;;;27.24;34.35;101665.97;5052744;27;47053;-78
2022/07/01 13:31:47;;;;;;;;;0.00;0.00;;;;;27.22;34.02;101666.13;5059257;27;47120;-78
2022/07/01 13:34:13;;;;;;;;;0.00;0.00;;;;;27.22;34.60;101670.75;5053228;27;45573;-76
2022/07/01 13:36:38;;;;;;;;;0.00;0.00;;;;;27.20;34.23;101673.66;5053264;27;46049;-77
2022/07/01 13:39:03;;;;;;;;;0.00;0.00;;;;;27.21;34.43;101678.06;5054335;27;46882;-76
2022/07/01 13:41:29;;;;;;;;;0.00;0.00;;;;;27.20;34.19;101673.66;5053201;27;45599;-80
2022/07/01 13:43:54;;;;;;;;;0.00;0.00;;;;;27.18;33.97;101672.94;5057749;27;45672;-77
2022/07/01 13:46:20;;;;;;;;;1.33;0.00;;;;;27.17;34.51;101682.16;5054306;27;46600;-76
2022/07/01 13:48:45;;;;;;;;;0.00;0.00;;;;;27.16;34.55;101683.19;5052334;27;46083;-76
2022/07/01 13:51:11;;;;;;;;;1.33;0.00;;;;;27.16;34.53;101674.16;5052537;27;45664;-75
2022/07/01 13:53:36;;;;;;;;;0.00;0.00;;;;;27.15;34.10;101673.31;5055763;27;46965;-76
2022/07/01 13:56:01;;;;;;;;;2.33;1.00;;;;;27.15;34.76;101672.44;5052342;27;47346;-76
2022/07/01 13:58:28;;;;;;;;;0.00;0.00;;;;;27.15;34.79;101681.50;5054348;27;45868;-78
2022/07/01 14:00:54;;;;;;;;;0.00;0.00;;;;;27.15;34.50;101675.19;5051796;27;45580;-78
2022/07/01 14:03:19;;;;;;;;;0.33;0.33;;;;;27.15;34.70;101675.19;5052665;27;45954;-75
2022/07/01 14:05:44;;;;;;;;;0.00;0.00;;;;;27.15;34.45;101680.63;5051845;27;45529;-77
2022/07/01 14:08:10;;;;;;;;;0.00;0.00;;;;;27.15;34.81;101681.50;5058423;27;48610;-76
2022/07/01 14:10:37;;;;;;;;;0.00;0.00;;;;;27.15;34.69;101686.94;5055440;27;46689;-76
2022/07/01 14:13:04;;;;;;;;;0.33;0.00;;;;;27.14;34.37;101693.38;5051633;27;47352;-75
2022/07/01 14:15:29;;;;;;;;;0.00;0.00;;;;;27.16;34.80;101691.34;5052528;27;46007;-76
2022/07/01 14:17:54;;;;;;;;;0.00;0.00;;;;;27.15;35.12;101692.38;5051154;27;46045;-77
2022/07/01 14:20:20;;;;;;;;;1.33;0.00;;;;;27.14;35.06;101690.66;5050996;27;47112;-77
2022/07/01 14:22:45;;;;;;;;;0.00;0.00;;;;;27.16;34.50;101690.50;5054000;27;47575;-78
2022/07/01 14:25:11;;;;;;;;;1.00;1.00;;;;;27.16;35.01;101685.03;5053213;27;45671;-77
2022/07/01 14:27:36;;;;;;;;;0.00;0.00;;;;;27.16;34.89;101688.63;5051022;27;46373;-77
2022/07/01 14:30:05;;;;;;;;;1.00;0.67;;;;;27.17;35.12;101694.91;5051515;27;45583;-77
2022/07/01 14:32:31;;;;;;;;;0.00;0.00;;;;;27.18;34.64;101693.91;5052748;27;45914;-77
2022/07/01 14:34:56;;;;;;;;;0.00;0.00;;;;;27.18;34.63;101691.19;5052231;27;45506;-77
2022/07/01 14:37:22;;;;;;;;;0.00;0.00;;;;;27.18;34.55;101688.47;5053982;27;47723;-77
2022/07/01 14:39:51;;;;;;;;;0.00;0.00;;;;;27.19;35.12;101687.44;5054432;27;46503;-77
2022/07/01 14:42:16;;;;;;;;;0.00;0.00;;;;;27.21;34.54;101688.09;5053324;27;45648;-77
2022/07/01 14:44:41;;;;;;;;;0.00;0.00;;;;;27.20;34.62;101691.88;5055956;27;45549;-77
2022/07/01 14:47:07;;;;;;;;;0.00;0.00;;;;;27.21;34.51;101688.09;5052633;27;45789;-77
2022/07/01 14:49:35;;;;;;;;;0.00;0.00;;;;;27.20;34.57;101691.88;5053535;27;46269;-77
2022/07/01 14:52:01;;;;;;;;;0.00;0.00;;;;;27.21;35.08;101688.09;5050924;27;46912;-77
2022/07/01 14:54:27;;;;;;;;;2.00;0.00;;;;;27.18;34.79;101688.47;5053523;27;45595;-77
2022/07/01 14:56:52;;;;;;;;;0.00;0.00;;;;;27.16;34.75;101702.25;5052160;27;45968;-76
2022/07/01 14:59:17;;;;;;;;;0.00;0.00;;;;;27.14;35.01;101698.00;5056459;27;45483;-77
2022/07/01 15:01:43;;;;;;;;;2.00;0.00;;;;;27.12;35.27;101687.25;5054577;27;45682;-78
2022/07/01 15:04:08;;;;;;;;;0.00;0.00;;;;;27.12;34.82;101697.31;5054174;27;55999;-78
2022/07/01 15:06:33;;;;;;;;;0.00;0.00;;;;;27.14;35.39;101695.28;5053167;27;46018;-79
2022/07/01 15:08:59;;;;;;;;;1.33;1.00;;;;;27.14;34.81;101693.38;5051649;27;45490;-79
2022/07/01 15:11:24;;;;;;;;;0.00;0.00;;;;;27.15;35.47;101699.69;5052349;27;46074;-76
2022/07/01 15:13:49;;;;;;;;;0.00;0.00;;;;;27.14;35.60;101696.09;5052380;27;46970;-76
2022/07/01 15:16:15;;;;;;;;;0.00;0.00;;;;;27.16;35.24;101693.22;5052325;27;45732;-75
2022/07/01 15:18:40;;;;;;;;;0.33;0.33;;;;;27.16;35.68;101698.66;5050622;27;47912;-77
2022/07/01 15:21:06;;;;;;;;;1.33;1.00;;;;;27.15;35.15;101695.13;5050580;27;47106;-78
2022/07/01 15:23:31;;;;;;;;;0.00;0.00;;;;;27.15;35.62;101686.94;5052547;27;46927;-77
2022/07/01 15:25:57;;;;;;;;;0.33;0.33;;;;;27.13;36.33;101688.13;5050338;27;46211;-77
2022/07/01 15:28:24;;;;;;;;;0.33;0.00;;;;;27.08;35.92;101686.75;5050893;27;45534;-77
2022/07/01 15:30:49;;;;;;;;;0.00;0.00;;;;;27.10;36.75;101689.31;5052705;27;47365;-77
2022/07/01 15:33:15;;;;;;;;;1.00;1.00;;;;;27.09;36.57;101693.03;5053498;27;46775;-77
2022/07/01 15:35:40;;;;;;;;;0.67;0.67;;;;;27.10;36.83;101686.59;5054821;27;48019;-80
2022/07/01 15:38:06;;;;;;;;;2.67;0.00;;;;;27.12;37.22;101686.41;5055040;27;45699;-79
2022/07/01 15:40:31;;;;;;;;;0.00;0.00;;;;;27.13;37.47;101685.41;5053636;27;47282;-75
2022/07/01 15:42:57;;;;;;;;;1.67;1.00;;;;;27.14;37.82;101682.47;5053878;27;45680;-77
2022/07/01 15:45:24;;;;;;;;;0.00;0.00;;;;;27.17;38.09;101682.16;5053674;27;46163;-77
2022/07/01 15:48:05;;;;;;;;;1.00;1.00;;;;;27.20;38.20;101683.69;5049871;27;46098;-78
2022/07/01 15:50:31;;;;;;;;;1.00;1.00;;;;;27.22;38.45;101676.22;5051559;27;53975;-78
2022/07/01 15:52:56;;;;;;;;;0.00;0.00;;;;;27.23;38.46;101680.63;5054375;27;45589;-80
2022/07/01 15:55:22;;;;;;;;;0.00;0.00;;;;;27.26;38.12;101680.25;5056642;27;46145;-75
2022/07/01 15:57:48;;;;;;;;;0.00;0.00;;;;;27.30;38.20;101680.81;5049043;27;47354;-75
2022/07/01 16:00:14;;;;;;;;;0.00;0.00;;;;;27.31;37.98;101683.34;5054640;27;46358;-76
2022/07/01 16:02:40;;;;;;;;;0.00;0.00;;;;;27.34;38.65;101680.28;5051285;27;46219;-80
2022/07/01 16:05:06;;;;;;;;;0.33;0.33;;;;;27.37;38.29;101689.97;5053052;27;47192;-77
2022/07/01 16:07:34;;;;;;;;;0.00;0.00;;;;;27.38;38.70;101683.50;5053912;27;46280;-75
2022/07/01 16:10:45;;;;;;;;;0.00;0.00;;;;;27.39;39.17;101681.63;5049789;27;45724;-76
2022/07/01 16:13:13;;;;;;;;;0.00;0.00;;;;;27.40;38.71;101686.06;5047704;27;46470;-77
2022/07/01 16:15:40;;;;;;;;;0.67;0.67;;;;;27.41;38.63;101683.16;5053206;27;46338;-78
2022/07/01 16:18:10;;;;;;;;;0.00;0.00;;;;;27.42;38.75;101686.75;5066240;27;45760;-78
2022/07/01 16:20:41;;;;;;;;;0.33;0.33;;;;;27.43;38.83;101689.28;5050714;27;51798;-76
2022/07/01 16:23:10;;;;;;;;;0.00;0.00;;;;;27.44;38.04;101687.41;5051774;27;45547;-78
2022/07/01 16:25:38;;;;;;;;;0.00;0.00;;;;;27.42;36.64;101686.75;5054525;27;47211;-77
2022/07/01 16:28:04;;;;;;;;;0.00;0.00;;;;;27.38;35.58;101682.66;5051538;27;45759;-77
2022/07/01 16:30:29;;;;;;;;;0.00;0.00;;;;;27.37;34.73;101684.53;5051613;27;45713;-78
2022/07/01 16:32:58;;;;;;;;;0.00;0.00;;;;;27.35;34.56;101692.88;5056651;27;45824;-77
2022/07/01 16:35:29;;;;;;;;;0.00;0.00;;;;;27.32;33.93;101687.78;5052414;27;47317;-77
2022/07/01 16:37:54;;;;;;;;;0.00;0.00;;;;;27.27;33.65;101690.16;5056822;27;45945;-77
2022/07/01 16:40:42;;;;;;;;;0.00;0.00;;;;;27.21;33.23;101694.41;5052433;27;45897;-78
2022/07/01 16:43:12;;;;;;;;;2.00;0.00;;;;;27.18;33.34;101694.75;5064706;27;45656;-79
2022/07/01 16:45:40;;;;;;;;;0.67;0.00;;;;;27.16;32.26;101688.63;5073920;27;46236;-79
2022/07/01 16:48:06;;;;;;;;;0.00;0.00;;;;;27.16;32.18;101694.09;5072233;27;45324;-78
2022/07/01 16:50:51;;;;;;;;;0.00;0.00;;;;;27.16;32.52;101682.31;5073590;27;45351;-79
2022/07/01 16:53:21;;;;;;;;;0.00;0.00;;;;;27.15;32.26;101689.66;5073725;27;45581;-78
2022/07/01 16:55:47;;;;;;;;;0.00;0.00;;;;;27.15;31.69;101689.66;5076328;27;45442;-81
2022/07/01 16:58:20;;;;;;;;;0.00;0.00;;;;;27.15;31.75;101688.78;5066647;27;47202;-79
2022/07/01 17:00:45;;;;;;;;;1.00;0.00;;;;;27.14;32.30;101693.38;5052075;27;47103;-81
2022/07/01 17:03:11;;;;;;;;;0.00;0.00;;;;;27.15;32.36;101689.66;5055658;27;45995;-79
2022/07/01 17:05:38;;;;;;;;;0.33;0.33;;;;;27.16;31.86;101694.09;5072587;27;45589;-81
2022/07/01 17:08:04;;;;;;;;;0.00;0.00;;;;;27.16;31.08;101696.81;5071201;27;45695;-83
2022/07/01 17:10:31;;;;;;;;;1.00;0.00;;;;;27.15;31.51;101697.84;5060606;27;45664;-83
